createdAt,value
2023-05-13T00:01:27.447Z,3.90
2023-05-13T00:03:56.492Z,3.70
2023-05-13T00:06:25.754Z,3.35
2023-05-13T00:08:54.747Z,3.08
2023-05-13T00:11:23.766Z,3.40
2023-05-13T00:13:52.941Z,3.28
2023-05-13T00:16:27.632Z,2.97
2023-05-13T00:18:57.107Z,3.70
2023-05-13T00:21:26.255Z,3.25
2023-05-13T00:23:55.807Z,3.35
2023-05-13T00:26:24.940Z,3.45
2023-05-13T00:28:53.993Z,3.20
2023-05-13T00:31:24.440Z,3.08
2023-05-13T00:33:53.481Z,3.97
2023-05-13T00:36:22.736Z,3.25
2023-05-13T00:38:51.791Z,3.85
2023-05-13T00:41:21.820Z,3.80
2023-05-13T00:43:51.334Z,3.40
2023-05-13T00:46:20.693Z,3.35
2023-05-13T00:48:51.361Z,3.72
2023-05-13T00:51:20.531Z,3.83
2023-05-13T00:53:51.116Z,3.85
2023-05-13T00:56:21.734Z,3.80
2023-05-13T00:58:50.901Z,3.55
2023-05-13T01:01:33.881Z,3.58
2023-05-13T01:04:16.004Z,3.75
2023-05-13T01:06:58.202Z,3.25
2023-05-13T01:09:38.088Z,3.40
2023-05-13T01:12:12.084Z,4.07
2023-05-13T01:14:49.022Z,3.22
2023-05-13T01:17:21.896Z,3.17
2023-05-13T01:19:55.829Z,3.50
2023-05-13T01:22:26.250Z,3.53
2023-05-13T01:24:55.256Z,3.70
2023-05-13T01:27:24.725Z,4.03
2023-05-13T01:29:55.836Z,4.20
2023-05-13T01:32:29.905Z,4.03
2023-05-13T01:34:59.753Z,4.03
2023-05-13T01:37:31.386Z,3.70
2023-05-13T01:40:01.036Z,3.33
2023-05-13T01:42:32.250Z,3.50
2023-05-13T01:45:01.344Z,3.72
2023-05-13T01:47:30.783Z,3.47
2023-05-13T01:50:00.306Z,3.38
2023-05-13T01:52:31.565Z,3.38
2023-05-13T01:55:00.686Z,3.72
2023-05-13T01:57:30.071Z,3.70
2023-05-13T01:59:59.659Z,3.53
2023-05-13T02:02:28.785Z,3.70
2023-05-13T02:04:58.100Z,3.60
2023-05-13T02:07:27.160Z,3.65
2023-05-13T02:09:59.939Z,3.72
2023-05-13T02:12:29.112Z,3.30
2023-05-13T02:14:58.182Z,3.42
2023-05-13T02:17:27.305Z,3.40
2023-05-13T02:19:56.410Z,3.10
2023-05-13T02:22:25.701Z,3.38
2023-05-13T02:24:54.847Z,3.72
2023-05-13T02:27:25.260Z,4.00
2023-05-13T02:29:54.487Z,3.88
2023-05-13T02:32:23.682Z,3.88
2023-05-13T02:34:52.726Z,4.22
2023-05-13T02:37:23.054Z,3.83
2023-05-13T02:40:00.357Z,3.83
2023-05-13T02:42:30.857Z,3.78
2023-05-13T02:45:00.055Z,3.65
2023-05-13T02:47:31.648Z,3.92
2023-05-13T02:50:06.332Z,4.25
2023-05-13T02:52:36.303Z,4.10
2023-05-13T02:55:07.408Z,4.20
2023-05-13T02:57:38.716Z,4.07
2023-05-13T03:02:37.438Z,4.55
2023-05-13T03:05:07.436Z,4.70
2023-05-13T03:07:36.668Z,5.00
2023-05-13T03:10:07.734Z,4.80
2023-05-13T03:12:38.223Z,4.97
2023-05-13T03:17:37.702Z,5.22
2023-05-13T03:20:08.796Z,4.82
2023-05-13T03:22:38.773Z,4.93
2023-05-13T03:25:09.061Z,5.13
2023-05-13T03:27:45.879Z,5.45
2023-05-13T03:30:15.547Z,5.35
2023-05-13T03:32:51.044Z,5.20
2023-05-13T03:35:20.272Z,5.72
2023-05-13T03:37:49.802Z,5.85
2023-05-13T03:40:20.333Z,5.85
2023-05-13T03:42:51.419Z,6.05
2023-05-13T03:45:22.552Z,6.68
2023-05-13T03:47:54.627Z,7.22
2023-05-13T03:52:54.967Z,8.13
2023-05-13T03:55:24.834Z,8.65
2023-05-13T03:57:55.247Z,8.18
2023-05-13T04:00:24.619Z,8.60
2023-05-13T04:02:53.781Z,7.90
2023-05-13T04:05:23.296Z,8.65
2023-05-13T04:07:52.334Z,8.68
2023-05-13T04:10:21.669Z,8.93
2023-05-13T04:12:50.908Z,7.82
2023-05-13T04:15:21.489Z,8.40
2023-05-13T04:17:50.957Z,8.52
2023-05-13T04:20:20.395Z,9.98
2023-05-13T04:22:49.750Z,10.48
2023-05-13T04:25:18.888Z,10.55
2023-05-13T04:27:48.561Z,11.73
2023-05-13T04:30:26.964Z,11.05
2023-05-13T04:32:56.036Z,10.80
2023-05-13T04:35:25.628Z,11.50
2023-05-13T04:37:59.034Z,13.13
2023-05-13T04:40:28.296Z,13.27
2023-05-13T04:43:00.221Z,16.58
2023-05-13T04:45:38.423Z,17.48
2023-05-13T04:48:10.499Z,17.77
2023-05-13T04:50:39.643Z,18.55
2023-05-13T04:53:10.709Z,18.55
2023-05-13T04:55:39.729Z,18.55
2023-05-13T04:58:08.800Z,17.45
2023-05-13T05:00:39.959Z,18.67
2023-05-13T05:03:09.169Z,19.50
2023-05-13T05:05:38.756Z,18.40
2023-05-13T05:08:09.280Z,21.73
2023-05-13T05:10:39.616Z,21.83
2023-05-13T05:13:11.128Z,20.00
2023-05-13T05:15:42.343Z,21.73
2023-05-13T05:18:13.759Z,24.98
2023-05-13T05:20:44.425Z,22.70
2023-05-13T05:23:17.924Z,20.90
2023-05-13T05:25:48.576Z,21.23
2023-05-13T05:28:19.467Z,22.48
2023-05-13T05:30:50.161Z,19.80
2023-05-13T05:33:28.633Z,18.95
2023-05-13T05:35:57.851Z,17.80
2023-05-13T05:38:26.963Z,17.67
2023-05-13T05:40:58.068Z,17.42
2023-05-13T05:43:27.138Z,16.42
2023-05-13T05:45:57.650Z,16.35
2023-05-13T05:48:34.794Z,16.85
2023-05-13T05:51:05.105Z,16.58
2023-05-13T05:53:41.112Z,17.92
2023-05-13T05:56:12.969Z,18.92
2023-05-13T05:58:42.049Z,18.65
2023-05-13T06:01:12.574Z,18.48
2023-05-13T06:03:41.792Z,17.98
2023-05-13T06:06:10.855Z,17.20
2023-05-13T06:08:39.926Z,19.30
2023-05-13T06:11:10.061Z,19.58
2023-05-13T06:13:39.428Z,19.45
2023-05-13T06:16:08.601Z,23.02
2023-05-13T06:18:41.690Z,15.52
2023-05-13T06:21:10.804Z,13.67
2023-05-13T06:23:40.007Z,13.70
2023-05-13T06:26:09.060Z,13.35
2023-05-13T06:28:39.229Z,13.50
2023-05-13T06:31:08.263Z,12.43
2023-05-13T06:33:39.403Z,13.27
2023-05-13T06:36:10.575Z,14.75
2023-05-13T06:38:39.672Z,12.48
2023-05-13T06:41:08.767Z,12.85
2023-05-13T06:43:40.234Z,12.07
2023-05-13T06:46:16.606Z,12.55
2023-05-13T06:48:45.960Z,10.70
2023-05-13T06:51:16.438Z,7.80
2023-05-13T06:53:45.682Z,8.65
2023-05-13T06:56:14.694Z,8.65
2023-05-13T06:58:43.774Z,9.18
2023-05-13T07:01:13.119Z,8.68
2023-05-13T07:03:42.623Z,8.02
2023-05-13T07:06:11.990Z,9.95
2023-05-13T07:08:42.460Z,9.10
2023-05-13T07:11:11.501Z,9.00
2023-05-13T07:13:40.633Z,9.65
2023-05-13T07:16:09.602Z,9.52
2023-05-13T07:18:38.745Z,9.70
2023-05-13T07:21:07.826Z,9.15
2023-05-13T07:23:36.970Z,8.55
2023-05-13T07:26:07.504Z,9.05
2023-05-13T07:28:36.693Z,8.68
2023-05-13T07:31:06.563Z,8.57
2023-05-13T07:33:35.669Z,9.00
2023-05-13T07:36:05.875Z,9.55
2023-05-13T07:38:35.063Z,9.30
2023-05-13T07:41:04.146Z,8.85
2023-05-13T07:43:35.167Z,9.25
2023-05-13T07:46:04.317Z,8.85
2023-05-13T07:48:33.722Z,9.02
2023-05-13T07:51:03.213Z,9.85
2023-05-13T07:53:32.426Z,10.02
2023-05-13T07:56:01.457Z,10.48
2023-05-13T07:58:30.599Z,10.55
2023-05-13T08:01:01.204Z,10.95
2023-05-13T08:03:30.381Z,9.93
2023-05-13T08:05:59.452Z,10.02
2023-05-13T08:08:28.594Z,9.68
2023-05-13T08:10:58.006Z,9.32
2023-05-13T08:13:27.168Z,10.32
2023-05-13T08:15:56.287Z,10.43
2023-05-13T08:18:26.903Z,10.57
2023-05-13T08:20:55.989Z,10.18
2023-05-13T08:23:36.898Z,10.20
2023-05-13T08:26:12.945Z,10.27
2023-05-13T08:28:42.663Z,10.48
2023-05-13T08:31:13.428Z,10.13
2023-05-13T08:33:46.095Z,11.52
2023-05-13T08:36:15.682Z,12.27
2023-05-13T08:38:44.908Z,13.07
2023-05-13T08:41:15.080Z,11.70
2023-05-13T08:43:44.782Z,13.02
2023-05-13T08:46:14.800Z,12.20
2023-05-13T08:48:46.070Z,13.15
2023-05-13T08:51:15.183Z,12.77
2023-05-13T08:53:47.670Z,13.02
2023-05-13T08:56:16.760Z,13.38
2023-05-13T08:58:46.045Z,13.05
2023-05-13T09:01:15.844Z,13.57
2023-05-13T09:03:55.736Z,12.93
2023-05-13T09:06:24.826Z,13.60
2023-05-13T09:08:54.526Z,14.77
2023-05-13T09:11:24.296Z,16.35
2023-05-13T09:14:00.151Z,16.80
2023-05-13T09:16:30.369Z,17.35
2023-05-13T09:19:01.749Z,16.88
2023-05-13T09:24:18.259Z,16.52
2023-05-13T09:26:47.625Z,18.30
2023-05-13T09:29:22.008Z,18.45
2023-05-13T09:31:53.191Z,18.45
2023-05-13T09:34:31.406Z,19.58
2023-05-13T09:37:03.425Z,18.17
2023-05-13T09:39:34.205Z,17.42
2023-05-13T09:42:05.397Z,16.60
2023-05-13T09:47:04.592Z,17.45
2023-05-13T09:49:35.232Z,17.00
2023-05-13T09:52:10.045Z,17.55
2023-05-13T09:54:39.202Z,16.13
2023-05-13T09:57:08.485Z,14.70
2023-05-13T09:59:37.591Z,15.07
2023-05-13T10:02:08.242Z,13.68
2023-05-13T10:04:39.200Z,14.35
2023-05-13T10:07:10.069Z,13.10
2023-05-13T10:09:39.947Z,12.88
2023-05-13T10:12:10.692Z,12.63
2023-05-13T10:14:40.965Z,12.43
2023-05-13T10:17:10.969Z,13.35
2023-05-13T10:19:42.026Z,14.10
2023-05-13T10:22:11.972Z,12.40
2023-05-13T10:24:41.231Z,11.88
2023-05-13T10:27:12.554Z,11.85
2023-05-13T10:29:42.328Z,12.32
2023-05-13T10:32:12.519Z,11.60
2023-05-13T10:34:45.344Z,11.07
2023-05-13T10:37:51.451Z,11.48
2023-05-13T10:40:56.895Z,12.55
2023-05-13T10:43:29.437Z,12.80
2023-05-13T10:45:59.672Z,11.80
2023-05-13T10:48:38.982Z,11.55
2023-05-13T10:51:09.947Z,12.25
2023-05-13T10:53:45.207Z,11.43
2023-05-13T10:56:14.348Z,11.70
2023-05-13T10:58:43.441Z,12.13
2023-05-13T11:01:18.322Z,11.52
2023-05-13T11:03:54.786Z,10.90
2023-05-13T11:06:30.506Z,11.43
2023-05-13T11:08:59.563Z,11.25
2023-05-13T11:11:33.272Z,11.75
2023-05-13T11:14:17.954Z,11.43
2023-05-13T11:16:48.524Z,11.38
2023-05-13T11:19:23.224Z,11.18
2023-05-13T11:21:55.505Z,12.10
2023-05-13T11:24:25.477Z,12.00
2023-05-13T11:26:56.395Z,11.35
2023-05-13T11:29:32.794Z,12.13
2023-05-13T11:32:02.657Z,13.05
2023-05-13T11:34:32.894Z,12.50
2023-05-13T11:37:11.576Z,12.30
2023-05-13T11:39:42.243Z,12.52
2023-05-13T11:42:12.441Z,12.95
2023-05-13T11:44:47.761Z,14.57
2023-05-13T11:47:26.386Z,14.32
2023-05-13T11:49:55.952Z,13.35
2023-05-13T11:52:28.460Z,14.13
2023-05-13T11:54:59.047Z,14.77
2023-05-13T11:57:32.817Z,12.88
2023-05-13T12:00:05.639Z,13.52
2023-05-13T12:02:40.582Z,13.90
2023-05-13T12:05:11.756Z,13.30
2023-05-13T12:07:42.239Z,13.77
2023-05-13T12:10:11.877Z,14.00
2023-05-13T12:12:41.978Z,14.98
2023-05-13T12:15:13.591Z,14.95
2023-05-13T12:17:42.800Z,15.57
2023-05-13T12:20:14.431Z,15.10
2023-05-13T12:22:57.024Z,16.90
2023-05-13T12:25:44.049Z,16.90
2023-05-13T12:28:16.972Z,19.30
2023-05-13T12:30:53.452Z,17.92
2023-05-13T12:33:25.613Z,17.50
2023-05-13T12:36:14.921Z,18.27
2023-05-13T12:39:00.254Z,18.30
2023-05-13T12:41:31.427Z,17.92
2023-05-13T12:44:01.901Z,18.45
2023-05-13T12:46:31.562Z,18.33
2023-05-13T12:49:03.232Z,18.75
2023-05-13T12:51:33.981Z,19.02
2023-05-13T12:54:04.596Z,19.10
2023-05-13T12:56:33.779Z,18.60
2023-05-13T12:59:02.935Z,18.67
2023-05-13T13:01:32.123Z,18.00
2023-05-13T13:04:01.478Z,16.73
2023-05-13T13:06:32.730Z,16.70
2023-05-13T13:09:01.792Z,17.20
2023-05-13T13:11:32.388Z,17.30
2023-05-13T13:14:01.508Z,16.83
2023-05-13T13:16:30.695Z,18.33
2023-05-13T13:19:01.840Z,17.02
2023-05-13T13:21:32.204Z,18.08
2023-05-13T13:24:01.345Z,16.55
2023-05-13T13:26:31.814Z,19.38
2023-05-13T13:29:00.900Z,18.23
2023-05-13T13:31:30.036Z,18.58
2023-05-13T13:34:04.224Z,17.27
2023-05-13T13:36:33.327Z,17.80
2023-05-13T13:39:02.374Z,18.70
2023-05-13T13:41:32.875Z,18.00
2023-05-13T13:44:01.886Z,19.37
2023-05-13T13:46:31.016Z,19.40
2023-05-13T13:49:03.918Z,19.73
2023-05-13T13:51:39.491Z,19.00
2023-05-13T13:54:09.210Z,19.48
2023-05-13T13:56:40.111Z,19.70
2023-05-13T13:59:09.156Z,19.70
2023-05-13T14:01:39.515Z,18.45
2023-05-13T14:04:12.509Z,18.77
2023-05-13T14:06:44.461Z,20.48
2023-05-13T14:09:13.650Z,21.45
2023-05-13T14:11:44.306Z,20.35
2023-05-13T14:14:13.538Z,20.80
2023-05-13T14:16:42.628Z,20.83
2023-05-13T14:19:12.509Z,21.88
2023-05-13T14:21:41.817Z,21.50
2023-05-13T14:24:12.046Z,21.10
2023-05-13T14:26:41.302Z,21.75
2023-05-13T14:29:11.788Z,22.95
2023-05-13T14:31:40.832Z,21.77
2023-05-13T14:34:09.946Z,21.70
2023-05-13T14:36:39.129Z,22.00
2023-05-13T14:39:09.741Z,20.70
2023-05-13T14:41:40.355Z,23.23
2023-05-13T14:44:09.477Z,22.27
2023-05-13T14:46:41.414Z,22.73
2023-05-13T14:49:10.557Z,23.40
2023-05-13T14:51:39.858Z,22.30
2023-05-13T14:54:09.182Z,23.15
2023-05-13T14:56:38.399Z,21.65
2023-05-13T14:59:07.537Z,22.60
2023-05-13T15:01:36.866Z,21.70
2023-05-13T15:04:08.048Z,21.23
2023-05-13T15:06:38.922Z,18.45
2023-05-13T15:09:08.037Z,19.48
2023-05-13T15:14:08.165Z,20.83
2023-05-13T15:16:37.536Z,21.88
2023-05-13T15:19:09.214Z,21.65
2023-05-13T15:21:39.091Z,21.60
2023-05-13T15:24:08.444Z,19.20
2023-05-13T15:26:46.455Z,18.83
2023-05-13T15:29:16.648Z,19.10
2023-05-13T15:31:45.726Z,19.20
2023-05-13T15:34:16.416Z,20.42
2023-05-13T15:36:45.505Z,20.25
2023-05-13T15:39:16.579Z,19.85
2023-05-13T15:41:46.013Z,19.10
2023-05-13T15:44:15.068Z,18.40
2023-05-13T15:46:44.247Z,19.25
2023-05-13T15:49:15.172Z,20.33
2023-05-13T15:51:44.418Z,18.30
2023-05-13T15:54:13.522Z,20.10
2023-05-13T15:56:42.555Z,19.65
2023-05-13T15:59:11.710Z,20.52
2023-05-13T16:01:42.033Z,21.10
2023-05-13T16:04:15.380Z,21.08
2023-05-13T16:06:44.525Z,22.17
2023-05-13T16:09:13.541Z,20.88
2023-05-13T16:11:45.248Z,21.38
2023-05-13T16:14:14.859Z,21.13
2023-05-13T16:16:45.271Z,22.83
2023-05-13T16:19:16.589Z,23.83
2023-05-13T16:24:14.735Z,22.10
2023-05-13T16:26:43.802Z,20.33
2023-05-13T16:29:13.012Z,22.40
2023-05-13T16:31:42.190Z,22.38
2023-05-13T16:34:11.317Z,24.48
2023-05-13T16:36:41.842Z,25.98
2023-05-13T16:39:10.910Z,26.80
2023-05-13T16:41:40.388Z,23.95
2023-05-13T16:44:12.523Z,26.60
2023-05-13T16:46:41.894Z,25.27
2023-05-13T16:49:10.977Z,28.15
2023-05-13T16:51:41.715Z,26.50
2023-05-13T16:54:13.464Z,28.35
2023-05-13T16:56:42.696Z,26.52
2023-05-13T16:59:19.700Z,26.45
2023-05-13T17:01:50.089Z,27.33
2023-05-13T17:04:19.520Z,26.75
2023-05-13T17:06:49.989Z,28.08
2023-05-13T17:09:19.135Z,27.38
2023-05-13T17:11:48.234Z,29.70
2023-05-13T17:14:17.390Z,28.75
2023-05-13T17:16:46.507Z,24.67
2023-05-13T17:19:16.099Z,22.23
2023-05-13T17:21:45.422Z,23.35
2023-05-13T17:24:18.462Z,26.08
2023-05-13T17:26:47.536Z,24.50
2023-05-13T17:29:21.058Z,25.83
2023-05-13T17:31:52.269Z,24.52
2023-05-13T17:34:21.298Z,27.45
2023-05-13T17:36:52.508Z,27.00
2023-05-13T17:41:51.819Z,26.35
2023-05-13T17:44:21.186Z,25.27
2023-05-13T17:46:52.600Z,29.23
2023-05-13T17:51:50.394Z,26.73
2023-05-13T17:54:19.404Z,27.20
2023-05-13T17:56:50.707Z,28.73
2023-05-13T18:01:48.482Z,25.38
2023-05-13T18:04:17.554Z,25.27
2023-05-13T18:06:46.602Z,26.27
2023-05-13T18:09:15.724Z,27.50
2023-05-13T18:11:44.745Z,25.23
2023-05-13T18:14:15.144Z,26.13
2023-05-13T18:16:44.381Z,27.23
2023-05-13T18:19:13.517Z,28.67
2023-05-13T18:21:42.667Z,27.77
2023-05-13T18:24:14.494Z,27.73
2023-05-13T18:26:43.677Z,27.35
2023-05-13T18:29:14.399Z,24.58
2023-05-13T18:31:43.513Z,27.10
2023-05-13T18:34:12.787Z,27.20
2023-05-13T18:36:41.842Z,27.67
2023-05-13T18:39:11.203Z,27.50
2023-05-13T18:41:40.231Z,27.85
2023-05-13T18:44:09.403Z,28.10
2023-05-13T18:46:39.953Z,28.08
2023-05-13T18:49:09.081Z,28.70
2023-05-13T18:51:38.322Z,29.00
2023-05-13T18:54:07.477Z,30.33
2023-05-13T18:56:36.584Z,28.90
2023-05-13T18:59:05.707Z,28.48
2023-05-13T19:01:34.881Z,28.33
2023-05-13T19:04:05.420Z,29.95
2023-05-13T19:06:38.020Z,29.38
2023-05-13T19:09:07.123Z,27.90
2023-05-13T19:11:37.412Z,29.35
2023-05-13T19:14:06.614Z,28.52
2023-05-13T19:16:35.715Z,27.42
2023-05-13T19:19:06.201Z,28.88
2023-05-13T19:21:35.364Z,27.73
2023-05-13T19:24:04.628Z,29.60
2023-05-13T19:26:33.793Z,28.75
2023-05-13T19:29:03.331Z,29.35
2023-05-13T19:31:32.619Z,29.27
2023-05-13T19:34:01.975Z,29.50
2023-05-13T19:36:32.753Z,31.08
2023-05-13T19:39:02.117Z,29.98
2023-05-13T19:41:31.219Z,30.48
2023-05-13T19:44:01.488Z,30.50
2023-05-13T19:46:30.665Z,29.77
2023-05-13T19:48:59.697Z,30.08
2023-05-13T19:51:28.806Z,31.63
2023-05-13T19:53:59.262Z,33.92
2023-05-13T19:56:28.406Z,30.67
2023-05-13T19:58:57.475Z,33.95
2023-05-13T20:01:26.673Z,32.80
2023-05-13T20:03:55.924Z,31.85
2023-05-13T20:06:25.005Z,33.05
2023-05-13T20:08:54.070Z,32.95
2023-05-13T20:11:24.475Z,34.08
2023-05-13T20:13:53.590Z,32.73
2023-05-13T20:16:23.605Z,32.75
2023-05-13T20:18:52.884Z,33.05
2023-05-13T20:21:22.045Z,33.38
2023-05-13T20:23:51.036Z,33.65
2023-05-13T20:26:20.160Z,32.65
2023-05-13T20:28:52.037Z,34.58
2023-05-13T20:31:21.093Z,34.15
2023-05-13T20:33:50.138Z,34.28
2023-05-13T20:36:19.307Z,34.47
2023-05-13T20:38:48.776Z,35.35
2023-05-13T20:41:18.247Z,35.75
2023-05-13T20:43:47.305Z,34.95
2023-05-13T20:46:17.893Z,36.67
2023-05-13T20:48:47.951Z,35.97
2023-05-13T20:51:17.010Z,35.63
2023-05-13T20:53:47.389Z,35.72
2023-05-13T20:56:16.462Z,36.42
2023-05-13T20:58:45.466Z,36.60
2023-05-13T21:01:14.493Z,37.85
2023-05-13T21:03:45.089Z,38.83
2023-05-13T21:06:14.111Z,36.13
2023-05-13T21:08:44.282Z,37.63
2023-05-13T21:11:13.333Z,37.25
2023-05-13T21:13:42.389Z,37.03
2023-05-13T21:16:11.672Z,36.53
2023-05-13T21:18:40.943Z,37.03
2023-05-13T21:21:12.627Z,37.95
2023-05-13T21:23:43.508Z,38.45
2023-05-13T21:26:12.673Z,39.53
2023-05-13T21:28:41.879Z,37.05
2023-05-13T21:31:11.278Z,40.17
2023-05-13T21:33:40.333Z,39.45
2023-05-13T21:36:11.073Z,40.45
2023-05-13T21:38:40.097Z,38.42
2023-05-13T21:41:09.229Z,39.08
2023-05-13T21:43:38.247Z,40.45
2023-05-13T21:46:07.615Z,39.70
2023-05-13T21:48:36.690Z,39.58
2023-05-13T21:51:06.148Z,38.92
2023-05-13T21:53:36.612Z,38.13
2023-05-13T21:56:08.707Z,36.60
2023-05-13T21:58:37.745Z,36.78
2023-05-13T22:01:07.080Z,36.50
2023-05-13T22:03:36.487Z,36.17
2023-05-13T22:06:05.762Z,37.03
2023-05-13T22:08:36.453Z,35.20
2023-05-13T22:11:05.508Z,36.72
2023-05-13T22:13:34.799Z,36.63
2023-05-13T22:16:04.073Z,36.47
2023-05-13T22:18:33.403Z,36.03
2023-05-13T22:21:02.748Z,37.17
2023-05-13T22:23:32.006Z,37.33
2023-05-13T22:26:02.410Z,37.47
2023-05-13T22:28:31.423Z,37.00
2023-05-13T22:31:00.469Z,36.45
2023-05-13T22:33:29.554Z,37.85
2023-05-13T22:35:58.575Z,38.63
2023-05-13T22:38:27.609Z,37.47
2023-05-13T22:40:56.729Z,38.15
2023-05-13T22:43:27.099Z,36.78
2023-05-13T22:45:56.206Z,37.15
2023-05-13T22:48:25.468Z,37.25
2023-05-13T22:50:57.183Z,35.25
2023-05-13T22:53:26.537Z,36.40
2023-05-13T22:55:55.530Z,37.55
2023-05-13T22:58:26.386Z,37.53
2023-05-13T23:00:55.572Z,36.63
2023-05-13T23:03:24.655Z,36.33
2023-05-13T23:05:53.705Z,35.25
2023-05-13T23:08:22.740Z,35.03
2023-05-13T23:10:51.799Z,34.42
2023-05-13T23:13:20.946Z,34.40
2023-05-13T23:15:51.384Z,34.08
2023-05-13T23:18:21.150Z,33.33
2023-05-13T23:20:51.890Z,33.50
2023-05-13T23:23:21.267Z,32.78
2023-05-13T23:25:51.457Z,31.25
2023-05-13T23:28:20.494Z,29.88
2023-05-13T23:30:54.092Z,31.20
2023-05-13T23:33:23.134Z,29.90
2023-05-13T23:35:54.362Z,30.15
2023-05-13T23:38:23.627Z,29.70
2023-05-13T23:40:52.707Z,28.77
2023-05-13T23:43:21.671Z,28.73
2023-05-13T23:45:52.109Z,28.10
2023-05-13T23:48:21.106Z,28.53
2023-05-13T23:50:50.104Z,28.60
2023-05-13T23:53:19.115Z,27.92
2023-05-13T23:55:49.288Z,28.05
2023-05-13T23:58:18.440Z,27.80
